Terminal Aerodrome Forecast
Issued by NWS Louisville, KY

Home | Current Version | Previous Version | Text Only | Print | Product List | Glossary On
Versions: 1 2 3 4 5 6 7 8 9 10 11 12 13 14
000
FTUS43 KLMK 112329
TAFLEX
TAF
KLEX 112329Z 1200/1224 22013KT P6SM BKN200
     FM120400 28014G25KT P6SM BKN060
     FM120800 30015G28KT 6SM -SHSN OVC022
     FM121500 30016G28KT P6SM SCT035=

USA.gov is the U.S. government's official web portal to all federal, state and local government web resources and services.